createdAt,value
2018-03-26T00:00:57.487Z,98600.56
2018-03-26T00:03:31.090Z,98607.80
2018-03-26T00:06:04.762Z,98608.89
2018-03-26T00:08:38.445Z,98606.94
2018-03-26T00:11:12.145Z,98617.53
2018-03-26T00:13:45.854Z,98613.50
2018-03-26T00:16:19.483Z,98615.22
2018-03-26T00:18:53.096Z,98618.88
2018-03-26T00:21:26.698Z,98617.36
2018-03-26T00:24:00.286Z,98621.27
2018-03-26T00:26:33.826Z,98621.37
2018-03-26T00:29:07.411Z,98620.76
2018-03-26T00:31:40.987Z,98621.44
2018-03-26T00:34:14.597Z,98621.69
2018-03-26T00:36:48.276Z,98622.30
2018-03-26T00:39:22.075Z,98620.94
2018-03-26T00:41:55.768Z,98616.94
2018-03-26T00:44:29.502Z,98614.64
2018-03-26T00:47:03.094Z,98615.59
2018-03-26T00:49:36.726Z,98609.73
2018-03-26T00:52:10.322Z,98616.64
2018-03-26T00:54:44.037Z,98618.41
2018-03-26T00:57:17.611Z,98617.75
2018-03-26T00:59:51.206Z,98620.42
2018-03-26T01:02:24.718Z,98619.16
2018-03-26T01:04:58.302Z,98618.08
2018-03-26T01:07:31.929Z,98619.54
2018-03-26T01:10:05.531Z,98616.25
2018-03-26T01:12:39.146Z,98615.16
2018-03-26T01:15:12.894Z,98620.03
2018-03-26T01:17:46.595Z,98618.52
2018-03-26T01:20:20.233Z,98622.42
2018-03-26T01:22:53.755Z,98628.09
2018-03-26T01:25:27.384Z,98629.84
2018-03-26T01:28:00.950Z,98627.75
2018-03-26T01:30:34.562Z,98637.36
2018-03-26T01:33:08.129Z,98641.28
2018-03-26T01:35:41.806Z,98644.44
2018-03-26T01:38:15.467Z,98645.98
2018-03-26T01:40:49.065Z,98648.73
2018-03-26T01:43:22.619Z,98658.98
2018-03-26T01:45:56.324Z,98659.39
2018-03-26T01:48:30.090Z,98656.03
2018-03-26T01:51:03.613Z,98664.41
2018-03-26T01:53:37.218Z,98663.61
2018-03-26T01:56:10.855Z,98660.69
2018-03-26T01:58:44.487Z,98670.92
2018-03-26T02:01:18.299Z,98672.52
2018-03-26T02:03:51.875Z,98676.59
2018-03-26T02:06:25.604Z,98677.64
2018-03-26T02:08:59.175Z,98676.30
2018-03-26T02:11:32.813Z,98685.31
2018-03-26T02:14:06.522Z,98679.92
2018-03-26T02:16:40.054Z,98690.72
2018-03-26T02:19:13.725Z,98681.02
2018-03-26T02:21:47.255Z,98690.76
2018-03-26T02:24:20.831Z,98685.84
2018-03-26T02:30:12.811Z,98693.42
2018-03-26T02:32:46.447Z,98693.46
2018-03-26T02:35:20.034Z,98698.87
2018-03-26T02:37:53.683Z,98699.44
2018-03-26T02:40:27.233Z,98703.22
2018-03-26T02:43:00.867Z,98703.20
2018-03-26T02:45:34.492Z,98701.31
2018-03-26T02:48:08.106Z,98699.30
2018-03-26T02:50:41.795Z,98696.64
2018-03-26T02:53:15.405Z,98696.77
2018-03-26T02:55:49.048Z,98696.59
2018-03-26T02:58:22.662Z,98703.72
2018-03-26T03:00:56.295Z,98711.95
2018-03-26T03:03:29.947Z,98712.75
2018-03-26T03:06:03.490Z,98712.35
2018-03-26T03:08:37.201Z,98708.95
2018-03-26T03:11:10.790Z,98714.92
2018-03-26T03:13:44.407Z,98718.54
2018-03-26T03:16:18.015Z,98721.24
2018-03-26T03:18:51.648Z,98722.63
2018-03-26T03:21:25.466Z,98721.80
2018-03-26T03:23:59.107Z,98723.83
2018-03-26T03:26:32.788Z,98715.59
2018-03-26T03:29:06.563Z,98720.98
2018-03-26T03:31:40.117Z,98727.31
2018-03-26T03:34:13.910Z,98724.21
2018-03-26T03:36:48.410Z,98730.65
2018-03-26T03:39:22.222Z,98734.30
2018-03-26T03:41:55.906Z,98729.19
2018-03-26T03:44:29.592Z,98729.30
2018-03-26T03:47:03.150Z,98736.33
2018-03-26T03:49:36.691Z,98732.81
2018-03-26T03:52:10.337Z,98726.84
2018-03-26T03:54:43.919Z,98731.16
2018-03-26T03:57:17.551Z,98733.07
2018-03-26T03:59:51.328Z,98722.42
2018-03-26T04:02:24.966Z,98722.80
2018-03-26T04:04:58.534Z,98731.97
2018-03-26T04:07:32.214Z,98733.21
2018-03-26T04:10:05.822Z,98740.62
2018-03-26T04:12:39.514Z,98750.45
2018-03-26T04:15:13.158Z,98750.05
2018-03-26T04:17:46.818Z,98749.36
2018-03-26T04:20:20.394Z,98751.81
2018-03-26T04:22:54.066Z,98753.03
2018-03-26T04:25:27.794Z,98749.45
2018-03-26T04:28:01.322Z,98747.44
2018-03-26T04:30:34.978Z,98755.78
2018-03-26T04:33:08.606Z,98757.66
2018-03-26T04:35:42.354Z,98756.98
2018-03-26T04:38:15.908Z,98756.97
2018-03-26T04:40:49.574Z,98759.14
2018-03-26T04:43:23.337Z,98759.59
2018-03-26T04:45:56.854Z,98765.41
2018-03-26T04:48:30.451Z,98762.98
2018-03-26T04:51:04.038Z,98765.16
2018-03-26T04:53:37.638Z,98766.80
2018-03-26T04:56:11.466Z,98774.37
2018-03-26T04:58:45.147Z,98772.53
2018-03-26T05:01:18.749Z,98776.42
2018-03-26T05:03:52.398Z,98771.86
2018-03-26T05:06:26.115Z,98780.77
2018-03-26T05:08:59.818Z,98771.26
2018-03-26T05:11:33.590Z,98771.25
2018-03-26T05:14:07.307Z,98780.54
2018-03-26T05:16:41.029Z,98784.46
2018-03-26T05:19:14.666Z,98784.07
2018-03-26T05:21:48.238Z,98795.34
2018-03-26T05:24:22.039Z,98791.72
2018-03-26T05:29:55.466Z,98799.25
2018-03-26T05:32:29.158Z,98804.22
2018-03-26T05:35:02.767Z,98805.30
2018-03-26T05:37:36.373Z,98811.07
2018-03-26T05:40:10.122Z,98813.99
2018-03-26T05:42:43.731Z,98817.08
2018-03-26T05:45:17.366Z,98818.95
2018-03-26T05:47:51.098Z,98823.92
2018-03-26T05:50:24.783Z,98829.30
2018-03-26T05:52:58.482Z,98838.29
2018-03-26T05:55:32.128Z,98840.17
2018-03-26T05:58:05.670Z,98841.12
2018-03-26T06:00:39.490Z,98845.95
2018-03-26T06:03:13.108Z,98844.11
2018-03-26T06:05:46.786Z,98845.45
2018-03-26T06:08:20.385Z,98845.89
2018-03-26T06:10:53.980Z,98845.34
2018-03-26T06:13:27.518Z,98852.32
2018-03-26T06:16:01.252Z,98852.20
2018-03-26T06:18:34.930Z,98851.11
2018-03-26T06:21:08.622Z,98852.70
2018-03-26T06:23:42.310Z,98854.98
2018-03-26T06:26:15.976Z,98862.23
2018-03-26T06:28:49.522Z,98866.63
2018-03-26T06:31:23.078Z,98868.34
2018-03-26T06:33:56.691Z,98869.45
2018-03-26T06:36:36.234Z,98876.03
2018-03-26T06:39:26.707Z,98882.48
2018-03-26T06:42:00.302Z,98883.48
2018-03-26T06:44:33.963Z,98887.78
2018-03-26T06:47:17.838Z,98886.44
2018-03-26T06:49:51.627Z,98888.30
2018-03-26T06:52:25.214Z,98894.92
2018-03-26T06:54:58.840Z,98896.80
2018-03-26T06:57:32.514Z,98897.34
2018-03-26T07:00:06.353Z,98897.80
2018-03-26T07:02:39.952Z,98900.80
2018-03-26T07:05:13.474Z,98907.59
2018-03-26T07:07:47.177Z,98901.20
2018-03-26T07:10:20.987Z,98905.44
2018-03-26T07:12:54.681Z,98906.38
2018-03-26T07:15:28.307Z,98907.11
2018-03-26T07:18:02.105Z,98914.36
2018-03-26T07:20:35.742Z,98915.80
2018-03-26T07:23:09.386Z,98920.19
2018-03-26T07:25:43.207Z,98926.70
2018-03-26T07:28:17.017Z,98924.02
2018-03-26T07:30:50.787Z,98919.80
2018-03-26T07:33:24.489Z,98931.55
2018-03-26T07:35:58.324Z,98928.26
2018-03-26T07:38:32.012Z,98934.73
2018-03-26T07:41:05.794Z,98928.24
2018-03-26T07:43:39.330Z,98933.41
2018-03-26T07:46:12.974Z,98924.63
2018-03-26T07:48:46.783Z,98919.30
2018-03-26T07:51:20.571Z,98917.27
2018-03-26T07:53:54.194Z,98930.98
2018-03-26T07:56:27.827Z,98928.17
2018-03-26T07:59:01.400Z,98930.72
2018-03-26T08:01:35.042Z,98935.38
2018-03-26T08:04:08.662Z,98937.16
2018-03-26T08:06:42.421Z,98939.67
2018-03-26T08:09:16.135Z,98948.80
2018-03-26T08:11:50.175Z,98946.02
2018-03-26T08:14:23.774Z,98951.45
2018-03-26T08:16:57.395Z,98965.07
2018-03-26T08:19:31.046Z,98956.50
2018-03-26T08:22:04.575Z,98962.61
2018-03-26T08:24:38.233Z,98966.02
2018-03-26T08:27:11.860Z,98974.55
2018-03-26T08:29:45.643Z,98973.34
2018-03-26T08:32:19.411Z,98972.36
2018-03-26T08:34:53.139Z,98971.98
2018-03-26T08:37:26.764Z,98974.39
2018-03-26T08:40:00.629Z,98981.70
2018-03-26T08:42:34.370Z,98983.45
2018-03-26T08:45:08.182Z,98984.03
2018-03-26T08:47:41.692Z,98979.81
2018-03-26T08:50:15.352Z,98987.77
2018-03-26T08:52:48.952Z,98985.84
2018-03-26T08:55:22.538Z,98983.17
2018-03-26T08:57:56.171Z,98981.42
2018-03-26T09:00:29.793Z,98986.42
2018-03-26T09:03:03.573Z,98979.48
2018-03-26T09:05:37.143Z,98973.77
2018-03-26T09:08:10.966Z,98971.42
2018-03-26T09:10:44.719Z,98971.71
2018-03-26T09:13:18.492Z,98977.73
2018-03-26T09:15:52.087Z,98982.09
2018-03-26T09:18:25.775Z,98974.14
2018-03-26T09:20:59.669Z,98988.37
2018-03-26T09:23:33.318Z,98981.63
2018-03-26T09:26:07.020Z,98975.44
2018-03-26T09:28:40.656Z,98979.09
2018-03-26T09:31:14.455Z,98974.48
2018-03-26T09:33:48.087Z,98983.31
2018-03-26T09:36:21.777Z,98981.61
2018-03-26T09:38:55.378Z,98978.25
2018-03-26T09:41:28.922Z,98975.44
2018-03-26T09:44:02.474Z,98977.66
2018-03-26T09:46:36.088Z,98984.61
2018-03-26T09:49:09.871Z,98993.09
2018-03-26T09:51:43.494Z,98993.08
2018-03-26T09:54:17.223Z,98996.81
2018-03-26T09:56:50.982Z,98998.52
2018-03-26T09:59:24.730Z,98990.84
2018-03-26T10:01:58.415Z,98995.38
2018-03-26T10:04:32.148Z,98994.38
2018-03-26T10:07:05.754Z,98999.73
2018-03-26T10:09:39.398Z,99005.27
2018-03-26T10:12:13.200Z,98992.90
2018-03-26T10:14:47.165Z,98991.96
2018-03-26T10:17:20.923Z,98998.37
2018-03-26T10:19:54.688Z,99000.38
2018-03-26T10:22:28.463Z,99009.64
2018-03-26T10:25:02.843Z,99000.36
2018-03-26T10:27:36.475Z,98998.58
2018-03-26T10:30:10.221Z,98998.58
2018-03-26T10:32:44.048Z,98997.41
2018-03-26T10:35:17.662Z,99002.65
2018-03-26T10:37:51.346Z,99003.70
2018-03-26T10:40:25.085Z,99003.80
2018-03-26T10:42:58.782Z,99004.55
2018-03-26T10:45:32.406Z,99002.45
2018-03-26T10:48:05.938Z,99002.09
2018-03-26T10:50:39.682Z,98995.00
2018-03-26T10:53:13.394Z,98993.41
2018-03-26T10:55:47.178Z,99001.95
2018-03-26T10:58:20.888Z,99000.87
2018-03-26T11:00:54.582Z,98999.16
2018-03-26T11:03:28.190Z,98996.41
2018-03-26T11:06:01.846Z,98986.11
2018-03-26T11:08:35.517Z,98990.20
2018-03-26T11:11:09.272Z,98993.69
2018-03-26T11:13:42.907Z,99004.16
2018-03-26T11:16:16.859Z,98997.88
2018-03-26T11:18:50.699Z,99008.60
2018-03-26T11:21:24.431Z,98996.48
2018-03-26T11:23:58.201Z,99004.94
2018-03-26T11:26:31.917Z,98999.57
2018-03-26T11:29:05.640Z,99004.16
2018-03-26T11:31:39.317Z,99001.89
2018-03-26T11:34:12.984Z,99004.86
2018-03-26T11:36:46.764Z,99004.08
2018-03-26T11:39:20.493Z,99006.11
2018-03-26T11:41:54.284Z,99009.82
2018-03-26T11:44:28.014Z,99008.66
2018-03-26T11:47:01.691Z,99019.16
2018-03-26T11:49:35.512Z,99024.19
2018-03-26T11:52:09.303Z,99009.52
2018-03-26T11:54:42.887Z,99014.53
2018-03-26T11:57:16.592Z,99009.13
2018-03-26T11:59:50.263Z,99016.27
2018-03-26T12:02:23.974Z,99019.88
2018-03-26T12:04:57.662Z,99017.47
2018-03-26T12:07:31.351Z,99015.13
2018-03-26T12:10:05.098Z,99009.31
2018-03-26T12:12:38.835Z,99006.77
2018-03-26T12:15:12.515Z,99006.30
2018-03-26T12:17:46.250Z,99010.29
2018-03-26T12:20:31.780Z,99010.84
2018-03-26T12:23:17.375Z,99009.38
2018-03-26T12:26:04.089Z,99016.43
2018-03-26T12:28:49.795Z,99009.24
2018-03-26T12:31:23.474Z,99014.27
2018-03-26T12:34:09.024Z,99010.67
2018-03-26T12:36:42.686Z,99008.88
2018-03-26T12:39:16.391Z,99015.31
2018-03-26T12:41:50.350Z,99020.00
2018-03-26T12:44:36.022Z,99018.77
2018-03-26T12:47:09.730Z,99026.59
2018-03-26T12:49:43.312Z,99025.75
2018-03-26T12:52:28.832Z,99020.67
2018-03-26T12:55:02.611Z,99017.65
2018-03-26T12:57:48.331Z,99013.62
2018-03-26T13:00:22.041Z,99010.80
2018-03-26T13:02:55.572Z,99022.58
2018-03-26T13:05:29.430Z,99021.38
2018-03-26T13:08:03.378Z,99020.00
2018-03-26T13:10:37.127Z,99009.63
2018-03-26T13:13:10.763Z,99015.50
2018-03-26T13:15:44.587Z,99011.23
2018-03-26T13:18:18.372Z,99012.48
2018-03-26T13:20:52.134Z,99006.11
2018-03-26T13:23:25.865Z,99012.83
2018-03-26T13:25:59.764Z,99014.48
2018-03-26T13:28:33.418Z,99021.25
2018-03-26T13:31:07.043Z,99010.73
2018-03-26T13:33:40.782Z,99016.38
2018-03-26T13:36:14.458Z,99011.02
2018-03-26T13:38:48.018Z,99016.02
2018-03-26T13:41:21.785Z,99013.24
2018-03-26T13:43:55.479Z,99013.02
2018-03-26T13:46:34.384Z,99013.58
2018-03-26T13:49:08.050Z,99013.58
2018-03-26T13:51:41.830Z,99013.33
2018-03-26T13:54:15.518Z,99011.88
2018-03-26T13:56:49.313Z,99015.34
2018-03-26T13:59:23.051Z,99016.64
2018-03-26T14:01:56.674Z,99020.75
2018-03-26T14:04:30.235Z,99018.98
2018-03-26T14:07:03.830Z,99019.30
2018-03-26T14:12:49.677Z,99022.09
2018-03-26T14:15:35.338Z,99021.02
2018-03-26T14:18:09.086Z,99026.45
2018-03-26T14:20:42.697Z,99032.10
2018-03-26T14:23:16.285Z,99023.74
2018-03-26T14:25:50.032Z,99026.91
2018-03-26T14:28:23.549Z,99033.70
2018-03-26T14:30:57.153Z,99036.34
2018-03-26T14:33:30.739Z,99031.39
2018-03-26T14:36:04.337Z,99035.72
2018-03-26T14:38:37.846Z,99027.30
2018-03-26T14:41:11.797Z,99022.74
2018-03-26T14:43:45.405Z,99019.89
2018-03-26T14:46:19.044Z,99019.89
2018-03-26T14:48:52.605Z,99015.42
2018-03-26T14:51:26.249Z,99018.80
2018-03-26T14:53:59.922Z,99031.11
2018-03-26T14:56:33.477Z,99031.41
2018-03-26T14:59:07.249Z,99034.07
2018-03-26T15:01:40.790Z,99031.22
2018-03-26T15:04:14.517Z,99032.52
2018-03-26T15:06:48.278Z,99031.82
2018-03-26T15:09:21.845Z,99034.83
2018-03-26T15:11:55.369Z,99035.05
2018-03-26T15:14:28.999Z,99034.54
2018-03-26T15:17:16.896Z,99045.28
2018-03-26T15:19:50.654Z,99044.38
2018-03-26T15:22:24.402Z,99043.67
2018-03-26T15:24:57.910Z,99034.36
2018-03-26T15:27:31.587Z,99032.50
2018-03-26T15:30:05.209Z,99023.02
2018-03-26T15:32:38.878Z,99036.84
2018-03-26T15:35:12.443Z,99034.58
2018-03-26T15:37:46.241Z,99028.89
2018-03-26T15:40:19.802Z,99034.76
2018-03-26T15:42:53.293Z,99034.77
2018-03-26T15:45:27.074Z,99035.65
2018-03-26T15:48:00.726Z,99044.78
2018-03-26T15:50:34.529Z,99044.30
2018-03-26T15:53:08.343Z,99037.88
2018-03-26T15:55:42.002Z,99048.20
2018-03-26T15:58:15.637Z,99053.98
2018-03-26T16:00:49.763Z,99051.27
2018-03-26T16:03:29.113Z,99047.86
2018-03-26T16:06:02.782Z,99047.69
2018-03-26T16:08:36.566Z,99049.78
2018-03-26T16:11:10.147Z,99050.28
2018-03-26T16:13:43.745Z,99044.02
2018-03-26T16:16:17.422Z,99048.73
2018-03-26T16:18:51.077Z,99047.55
2018-03-26T16:21:24.765Z,99047.66
2018-03-26T16:23:58.375Z,99043.65
2018-03-26T16:26:32.021Z,99036.37
2018-03-26T16:29:05.671Z,99035.56
2018-03-26T16:31:39.233Z,99039.52
2018-03-26T16:34:12.770Z,99036.20
2018-03-26T16:36:46.401Z,99040.39
2018-03-26T16:39:20.096Z,99052.95
2018-03-26T16:41:53.750Z,99052.22
2018-03-26T16:44:27.392Z,99050.03
2018-03-26T16:47:00.968Z,99051.66
2018-03-26T16:49:34.509Z,99049.90
2018-03-26T16:52:08.152Z,99048.23
2018-03-26T16:54:41.730Z,99045.77
2018-03-26T16:57:15.396Z,99048.30
2018-03-26T16:59:48.977Z,99046.44
2018-03-26T17:02:22.689Z,99047.23
2018-03-26T17:04:56.457Z,99053.82
2018-03-26T17:07:30.089Z,99047.34
2018-03-26T17:10:03.639Z,99048.70
2018-03-26T17:12:37.209Z,99051.97
2018-03-26T17:15:10.953Z,99048.83
2018-03-26T17:17:44.617Z,99050.80
2018-03-26T17:20:18.190Z,99049.38
2018-03-26T17:22:51.752Z,99044.91
2018-03-26T17:25:25.287Z,99052.47
2018-03-26T17:27:58.805Z,99055.02
2018-03-26T17:30:32.318Z,99050.66
2018-03-26T17:33:05.910Z,99049.41
2018-03-26T17:35:39.474Z,99049.61
2018-03-26T17:38:12.944Z,99048.17
2018-03-26T17:40:46.609Z,99052.38
2018-03-26T17:43:20.302Z,99047.80
2018-03-26T17:45:53.853Z,99050.10
2018-03-26T17:48:27.679Z,99052.20
2018-03-26T17:51:01.338Z,99053.61
2018-03-26T17:53:34.874Z,99052.72
2018-03-26T17:56:08.490Z,99058.03
2018-03-26T17:58:42.153Z,99060.16
2018-03-26T18:01:15.792Z,99055.42
2018-03-26T18:03:49.265Z,99059.53
2018-03-26T18:06:22.946Z,99060.39
2018-03-26T18:08:56.511Z,99056.95
2018-03-26T18:11:30.130Z,99055.80
2018-03-26T18:14:03.681Z,99056.31
2018-03-26T18:16:37.330Z,99057.75
2018-03-26T18:19:10.986Z,99067.71
2018-03-26T18:21:44.813Z,99066.84
2018-03-26T18:24:18.437Z,99059.64
2018-03-26T18:26:52.029Z,99059.31
2018-03-26T18:29:25.671Z,99070.13
2018-03-26T18:31:59.317Z,99062.55
2018-03-26T18:34:33.011Z,99061.91
2018-03-26T18:37:06.490Z,99062.98
2018-03-26T18:39:40.158Z,99060.64
2018-03-26T18:42:13.798Z,99061.64
2018-03-26T18:44:47.426Z,99061.52
2018-03-26T18:47:21.138Z,99062.47
2018-03-26T18:49:54.802Z,99058.20
2018-03-26T18:52:28.390Z,99063.63
2018-03-26T18:55:02.393Z,99066.83
2018-03-26T18:57:36.038Z,99067.77
2018-03-26T19:00:09.677Z,99066.67
2018-03-26T19:02:43.246Z,99063.67
2018-03-26T19:05:16.922Z,99063.16
2018-03-26T19:07:50.470Z,99065.92
2018-03-26T19:10:24.070Z,99066.53
2018-03-26T19:12:57.614Z,99068.51
2018-03-26T19:15:31.409Z,99068.36
2018-03-26T19:18:05.010Z,99072.59
2018-03-26T19:20:38.637Z,99072.08
2018-03-26T19:23:12.262Z,99078.84
2018-03-26T19:25:45.938Z,99076.27
2018-03-26T19:28:19.574Z,99071.54
2018-03-26T19:30:53.266Z,99078.85
2018-03-26T19:33:26.946Z,99079.94
2018-03-26T19:36:14.226Z,99086.58
2018-03-26T19:38:47.990Z,99086.81
2018-03-26T19:41:21.681Z,99092.08
2018-03-26T19:43:55.294Z,99096.80
2018-03-26T19:46:28.930Z,99098.12
2018-03-26T19:49:02.445Z,99101.91
2018-03-26T19:51:36.076Z,99101.52
2018-03-26T19:54:09.667Z,99107.11
2018-03-26T19:56:43.329Z,99108.63
2018-03-26T19:59:16.930Z,99103.53
2018-03-26T20:01:50.550Z,99103.19
2018-03-26T20:04:24.133Z,99109.19
2018-03-26T20:06:57.762Z,99115.00
2018-03-26T20:09:31.419Z,99116.61
2018-03-26T20:12:05.168Z,99118.78
2018-03-26T20:14:39.015Z,99117.19
2018-03-26T20:17:13.640Z,99110.73
2018-03-26T20:19:47.373Z,99118.28
2018-03-26T20:22:20.906Z,99118.54
2018-03-26T20:24:54.505Z,99122.23
2018-03-26T20:27:28.306Z,99118.05
2018-03-26T20:30:01.960Z,99114.28
2018-03-26T20:32:35.578Z,99119.00
2018-03-26T20:35:09.131Z,99118.34
2018-03-26T20:37:42.903Z,99121.05
2018-03-26T20:40:16.539Z,99119.30
2018-03-26T20:42:50.106Z,99125.52
2018-03-26T20:45:23.831Z,99116.08
2018-03-26T20:47:57.510Z,99117.42
2018-03-26T20:50:31.047Z,99105.72
2018-03-26T20:53:04.698Z,99099.75
2018-03-26T20:55:38.302Z,99098.72
2018-03-26T20:58:11.895Z,99090.80
2018-03-26T21:00:45.544Z,99092.81
2018-03-26T21:03:19.122Z,99088.13
2018-03-26T21:05:52.686Z,99087.58
2018-03-26T21:08:26.327Z,99087.84
2018-03-26T21:10:59.980Z,99084.62
2018-03-26T21:13:33.510Z,99087.45
2018-03-26T21:16:07.199Z,99092.02
2018-03-26T21:18:40.763Z,99082.34
2018-03-26T21:21:14.499Z,99083.95
2018-03-26T21:23:48.299Z,99086.34
2018-03-26T21:26:21.942Z,99081.77
2018-03-26T21:28:55.514Z,99081.63
2018-03-26T21:31:29.181Z,99078.41
2018-03-26T21:34:02.990Z,99084.19
2018-03-26T21:36:36.543Z,99081.91
2018-03-26T21:39:10.114Z,99082.20
2018-03-26T21:41:43.672Z,99083.95
2018-03-26T21:44:17.296Z,99077.75
2018-03-26T21:46:50.926Z,99082.73
2018-03-26T21:49:24.576Z,99077.20
2018-03-26T21:51:58.127Z,99076.01
2018-03-26T21:54:31.788Z,99074.66
2018-03-26T21:57:05.418Z,99070.20
2018-03-26T21:59:39.050Z,99061.59
2018-03-26T22:02:12.642Z,99060.92
2018-03-26T22:04:46.395Z,99061.88
2018-03-26T22:07:20.098Z,99061.59
2018-03-26T22:09:53.676Z,99070.73
2018-03-26T22:12:27.361Z,99067.88
2018-03-26T22:15:01.242Z,99058.31
2018-03-26T22:17:34.883Z,99062.59
2018-03-26T22:20:08.503Z,99060.27
2018-03-26T22:22:42.123Z,99063.08
2018-03-26T22:25:15.798Z,99065.09
2018-03-26T22:27:49.429Z,99063.31
2018-03-26T22:30:23.095Z,99057.47
2018-03-26T22:32:56.842Z,99053.03
2018-03-26T22:35:30.424Z,99058.52
2018-03-26T22:38:03.951Z,99062.64
2018-03-26T22:40:37.451Z,99064.91
2018-03-26T22:43:11.066Z,99060.20
2018-03-26T22:45:44.694Z,99063.91
2018-03-26T22:48:18.335Z,99065.39
2018-03-26T22:50:52.047Z,99064.96
2018-03-26T22:53:25.630Z,99069.81
2018-03-26T22:55:59.169Z,99067.14
2018-03-26T22:58:32.715Z,99065.38
2018-03-26T23:01:06.442Z,99066.94
2018-03-26T23:03:40.021Z,99064.27
2018-03-26T23:06:13.646Z,99064.51
2018-03-26T23:08:47.173Z,99065.70
2018-03-26T23:11:20.733Z,99060.74
2018-03-26T23:13:54.395Z,99057.63
2018-03-26T23:16:28.054Z,99065.54
2018-03-26T23:19:01.640Z,99068.17
2018-03-26T23:21:35.337Z,99075.69
2018-03-26T23:24:08.842Z,99066.43
2018-03-26T23:26:42.559Z,99058.56
2018-03-26T23:29:16.117Z,99061.69
2018-03-26T23:31:49.733Z,99070.28
2018-03-26T23:34:23.277Z,99058.38
2018-03-26T23:43:09.847Z,99057.72
2018-03-26T23:45:43.517Z,99054.88
2018-03-26T23:48:17.020Z,99056.63
2018-03-26T23:50:50.736Z,99055.19
2018-03-26T23:53:24.290Z,99058.29
2018-03-26T23:55:57.883Z,99057.13
2018-03-26T23:58:31.446Z,99059.97
